sensor_id;sensor_type;location;lat;lon;timestamp;P1;P2;P0
49343;PMS5003;35210;41.606;-87.602;2023-11-21T00:00:20;11.80;6.60;6.60
49343;PMS5003;35210;41.606;-87.602;2023-11-21T00:02:48;11.80;9.40;5.20
49343;PMS5003;35210;41.606;-87.602;2023-11-21T00:05:16;8.00;8.00;6.20
49343;PMS5003;35210;41.606;-87.602;2023-11-21T00:07:45;9.00;8.20;7.20
49343;PMS5003;35210;41.606;-87.602;2023-11-21T00:10:13;8.20;8.20;7.00
49343;PMS5003;35210;41.606;-87.602;2023-11-21T00:12:41;8.20;7.60;6.20
49343;PMS5003;35210;41.606;-87.602;2023-11-21T00:15:11;6.00;6.00;5.20
49343;PMS5003;35210;41.606;-87.602;2023-11-21T00:17:40;11.60;9.20;8.00
49343;PMS5003;35210;41.606;-87.602;2023-11-21T00:20:09;15.00;12.80;9.40
49343;PMS5003;35210;41.606;-87.602;2023-11-21T00:22:38;10.60;9.00;8.00
49343;PMS5003;35210;41.606;-87.602;2023-11-21T00:25:07;11.00;9.40;7.00
49343;PMS5003;35210;41.606;-87.602;2023-11-21T00:27:36;16.20;12.00;10.20
49343;PMS5003;35210;41.606;-87.602;2023-11-21T00:30:05;11.60;11.60;10.20
49343;PMS5003;35210;41.606;-87.602;2023-11-21T00:32:36;16.80;13.60;9.80
49343;PMS5003;35210;41.606;-87.602;2023-11-21T00:35:05;8.40;8.40;6.00
49343;PMS5003;35210;41.606;-87.602;2023-11-21T00:37:33;10.80;8.80;7.80
49343;PMS5003;35210;41.606;-87.602;2023-11-21T00:40:02;9.80;8.00;7.40
49343;PMS5003;35210;41.606;-87.602;2023-11-21T00:42:32;9.60;9.60;7.60
49343;PMS5003;35210;41.606;-87.602;2023-11-21T00:45:00;8.20;8.20;7.20
49343;PMS5003;35210;41.606;-87.602;2023-11-21T00:47:29;6.60;6.60;6.00
49343;PMS5003;35210;41.606;-87.602;2023-11-21T00:49:59;12.40;10.80;8.20
49343;PMS5003;35210;41.606;-87.602;2023-11-21T00:52:28;10.00;9.00;7.20
49343;PMS5003;35210;41.606;-87.602;2023-11-21T00:54:56;11.80;7.60;7.00
49343;PMS5003;35210;41.606;-87.602;2023-11-21T00:57:24;14.40;7.00;6.00
49343;PMS5003;35210;41.606;-87.602;2023-11-21T00:59:52;6.60;6.60;5.20
49343;PMS5003;35210;41.606;-87.602;2023-11-21T01:02:21;10.00;9.00;7.60
49343;PMS5003;35210;41.606;-87.602;2023-11-21T01:04:49;10.60;9.20;7.20
49343;PMS5003;35210;41.606;-87.602;2023-11-21T01:07:19;13.00;6.40;3.80
49343;PMS5003;35210;41.606;-87.602;2023-11-21T01:09:48;8.00;8.00;5.80
49343;PMS5003;35210;41.606;-87.602;2023-11-21T01:12:16;8.40;6.60;6.00
49343;PMS5003;35210;41.606;-87.602;2023-11-21T01:14:44;7.40;6.80;4.00
49343;PMS5003;35210;41.606;-87.602;2023-11-21T01:17:12;11.80;6.60;4.40
49343;PMS5003;35210;41.606;-87.602;2023-11-21T01:19:40;8.20;7.20;4.80
49343;PMS5003;35210;41.606;-87.602;2023-11-21T01:22:08;7.60;7.40;5.20
49343;PMS5003;35210;41.606;-87.602;2023-11-21T01:24:39;6.80;4.00;3.20
49343;PMS5003;35210;41.606;-87.602;2023-11-21T01:27:07;7.00;7.00;6.20
49343;PMS5003;35210;41.606;-87.602;2023-11-21T01:29:35;8.20;7.40;6.20
49343;PMS5003;35210;41.606;-87.602;2023-11-21T01:32:04;8.00;6.60;5.60
49343;PMS5003;35210;41.606;-87.602;2023-11-21T01:34:33;12.40;10.20;8.40
49343;PMS5003;35210;41.606;-87.602;2023-11-21T01:37:01;21.20;20.00;13.40
49343;PMS5003;35210;41.606;-87.602;2023-11-21T01:39:31;12.80;11.60;8.80
49343;PMS5003;35210;41.606;-87.602;2023-11-21T01:42:00;7.20;6.80;6.00
49343;PMS5003;35210;41.606;-87.602;2023-11-21T01:44:29;6.00;6.00;4.80
49343;PMS5003;35210;41.606;-87.602;2023-11-21T01:46:57;8.00;4.20;3.80
49343;PMS5003;35210;41.606;-87.602;2023-11-21T01:49:25;6.40;3.00;3.00
49343;PMS5003;35210;41.606;-87.602;2023-11-21T01:51:53;7.40;4.00;3.00
49343;PMS5003;35210;41.606;-87.602;2023-11-21T01:54:22;0.00;0.00;0.00
49343;PMS5003;35210;41.606;-87.602;2023-11-21T01:56:50;4.00;4.00;3.60
49343;PMS5003;35210;41.606;-87.602;2023-11-21T01:59:20;3.80;3.80;3.60
49343;PMS5003;35210;41.606;-87.602;2023-11-21T02:01:49;6.00;6.00;5.60
49343;PMS5003;35210;41.606;-87.602;2023-11-21T02:04:18;2.00;2.00;2.00
49343;PMS5003;35210;41.606;-87.602;2023-11-21T02:06:46;3.80;3.80;3.00
49343;PMS5003;35210;41.606;-87.602;2023-11-21T02:09:16;3.00;2.60;2.00
49343;PMS5003;35210;41.606;-87.602;2023-11-21T02:11:44;4.60;3.00;2.20
49343;PMS5003;35210;41.606;-87.602;2023-11-21T02:14:12;6.20;3.60;2.60
49343;PMS5003;35210;41.606;-87.602;2023-11-21T02:16:42;2.40;2.00;2.00
49343;PMS5003;35210;41.606;-87.602;2023-11-21T02:19:13;4.40;3.20;2.80
49343;PMS5003;35210;41.606;-87.602;2023-11-21T02:21:49;4.00;4.00;3.00
49343;PMS5003;35210;41.606;-87.602;2023-11-21T02:24:20;4.00;2.40;2.00
49343;PMS5003;35210;41.606;-87.602;2023-11-21T02:26:49;7.20;7.20;5.20
49343;PMS5003;35210;41.606;-87.602;2023-11-21T02:29:18;2.20;1.00;1.00
49343;PMS5003;35210;41.606;-87.602;2023-11-21T02:31:47;2.80;2.80;2.20
49343;PMS5003;35210;41.606;-87.602;2023-11-21T02:34:20;4.60;3.00;2.40
49343;PMS5003;35210;41.606;-87.602;2023-11-21T02:36:50;6.00;6.00;3.00
49343;PMS5003;35210;41.606;-87.602;2023-11-21T02:39:18;2.00;2.00;2.00
49343;PMS5003;35210;41.606;-87.602;2023-11-21T02:41:48;4.00;4.00;3.00
49343;PMS5003;35210;41.606;-87.602;2023-11-21T02:44:16;6.20;2.40;2.20
49343;PMS5003;35210;41.606;-87.602;2023-11-21T02:46:44;2.00;1.00;0.00
49343;PMS5003;35210;41.606;-87.602;2023-11-21T02:49:12;8.00;4.00;3.60
49343;PMS5003;35210;41.606;-87.602;2023-11-21T02:51:40;3.00;3.00;1.20
49343;PMS5003;35210;41.606;-87.602;2023-11-21T02:54:09;7.40;3.00;3.00
49343;PMS5003;35210;41.606;-87.602;2023-11-21T02:56:38;5.60;4.00;3.20
49343;PMS5003;35210;41.606;-87.602;2023-11-21T02:59:06;7.00;4.00;3.00
49343;PMS5003;35210;41.606;-87.602;2023-11-21T03:01:34;6.80;6.40;3.80
49343;PMS5003;35210;41.606;-87.602;2023-11-21T03:04:03;8.00;6.00;4.00
49343;PMS5003;35210;41.606;-87.602;2023-11-21T03:06:31;7.00;4.40;4.00
49343;PMS5003;35210;41.606;-87.602;2023-11-21T03:08:59;7.40;6.20;3.00
49343;PMS5003;35210;41.606;-87.602;2023-11-21T03:11:27;6.40;4.80;2.80
49343;PMS5003;35210;41.606;-87.602;2023-11-21T03:13:57;3.40;3.40;2.80
49343;PMS5003;35210;41.606;-87.602;2023-11-21T03:16:25;2.00;2.00;2.00
49343;PMS5003;35210;41.606;-87.602;2023-11-21T03:18:53;6.20;5.60;4.80
49343;PMS5003;35210;41.606;-87.602;2023-11-21T03:21:21;8.00;6.20;3.00
49343;PMS5003;35210;41.606;-87.602;2023-11-21T03:23:49;3.80;3.00;2.00
49343;PMS5003;35210;41.606;-87.602;2023-11-21T03:26:17;7.20;4.80;3.40
49343;PMS5003;35210;41.606;-87.602;2023-11-21T03:28:45;4.20;3.00;2.00
49343;PMS5003;35210;41.606;-87.602;2023-11-21T03:31:15;5.60;4.40;3.40
49343;PMS5003;35210;41.606;-87.602;2023-11-21T03:33:44;6.40;5.40;3.20
49343;PMS5003;35210;41.606;-87.602;2023-11-21T03:36:12;4.40;3.00;2.20
49343;PMS5003;35210;41.606;-87.602;2023-11-21T03:38:41;3.80;3.20;2.00
49343;PMS5003;35210;41.606;-87.602;2023-11-21T03:41:12;5.80;3.20;3.00
49343;PMS5003;35210;41.606;-87.602;2023-11-21T03:43:40;6.40;6.20;4.80
49343;PMS5003;35210;41.606;-87.602;2023-11-21T03:46:08;7.60;5.60;4.00
49343;PMS5003;35210;41.606;-87.602;2023-11-21T03:48:39;3.80;3.80;2.80
49343;PMS5003;35210;41.606;-87.602;2023-11-21T03:51:07;6.60;4.60;2.80
49343;PMS5003;35210;41.606;-87.602;2023-11-21T03:53:35;6.80;3.00;3.00
49343;PMS5003;35210;41.606;-87.602;2023-11-21T03:56:03;6.60;6.60;5.40
49343;PMS5003;35210;41.606;-87.602;2023-11-21T03:58:32;6.20;6.20;5.00
49343;PMS5003;35210;41.606;-87.602;2023-11-21T04:01:00;8.80;6.00;4.20
49343;PMS5003;35210;41.606;-87.602;2023-11-21T04:03:28;6.60;6.60;3.60
49343;PMS5003;35210;41.606;-87.602;2023-11-21T04:05:58;4.40;4.40;3.00
49343;PMS5003;35210;41.606;-87.602;2023-11-21T04:08:26;9.40;8.00;6.20
49343;PMS5003;35210;41.606;-87.602;2023-11-21T04:10:54;11.80;9.00;7.00
49343;PMS5003;35210;41.606;-87.602;2023-11-21T04:13:22;9.80;6.00;5.20
49343;PMS5003;35210;41.606;-87.602;2023-11-21T04:15:50;2.00;0.00;0.00
49343;PMS5003;35210;41.606;-87.602;2023-11-21T04:18:19;10.40;7.00;5.20
49343;PMS5003;35210;41.606;-87.602;2023-11-21T04:20:48;8.20;7.00;5.00
49343;PMS5003;35210;41.606;-87.602;2023-11-21T04:23:18;11.40;9.80;7.40
49343;PMS5003;35210;41.606;-87.602;2023-11-21T04:25:46;10.00;10.00;7.60
49343;PMS5003;35210;41.606;-87.602;2023-11-21T04:28:14;9.20;6.80;6.00
49343;PMS5003;35210;41.606;-87.602;2023-11-21T04:30:42;6.00;6.00;6.00
49343;PMS5003;35210;41.606;-87.602;2023-11-21T04:33:10;11.80;10.80;7.40
49343;PMS5003;35210;41.606;-87.602;2023-11-21T04:35:38;10.20;8.40;7.20
49343;PMS5003;35210;41.606;-87.602;2023-11-21T04:38:07;8.00;8.00;7.00
49343;PMS5003;35210;41.606;-87.602;2023-11-21T04:40:36;11.00;10.00;8.00
49343;PMS5003;35210;41.606;-87.602;2023-11-21T04:43:04;14.33;11.00;8.67
49343;PMS5003;35210;41.606;-87.602;2023-11-21T04:45:32;13.60;11.20;6.20
49343;PMS5003;35210;41.606;-87.602;2023-11-21T04:48:01;13.40;12.20;10.60
49343;PMS5003;35210;41.606;-87.602;2023-11-21T04:50:30;14.60;11.20;8.00
49343;PMS5003;35210;41.606;-87.602;2023-11-21T04:52:58;12.60;9.40;6.00
49343;PMS5003;35210;41.606;-87.602;2023-11-21T04:55:27;12.00;11.20;9.20
49343;PMS5003;35210;41.606;-87.602;2023-11-21T04:57:56;15.40;11.40;7.60
49343;PMS5003;35210;41.606;-87.602;2023-11-21T05:00:24;14.00;10.40;6.00
49343;PMS5003;35210;41.606;-87.602;2023-11-21T05:02:52;13.00;12.00;9.20
49343;PMS5003;35210;41.606;-87.602;2023-11-21T05:05:20;9.80;7.20;6.40
49343;PMS5003;35210;41.606;-87.602;2023-11-21T05:07:49;11.60;9.80;7.00
49343;PMS5003;35210;41.606;-87.602;2023-11-21T05:10:18;8.00;8.00;6.20
49343;PMS5003;35210;41.606;-87.602;2023-11-21T05:12:47;10.60;8.00;6.60
49343;PMS5003;35210;41.606;-87.602;2023-11-21T05:15:19;7.60;7.60;6.80
49343;PMS5003;35210;41.606;-87.602;2023-11-21T05:17:47;9.60;8.80;6.00
49343;PMS5003;35210;41.606;-87.602;2023-11-21T05:20:17;8.80;8.80;7.00
49343;PMS5003;35210;41.606;-87.602;2023-11-21T05:22:46;8.80;7.80;6.40
49343;PMS5003;35210;41.606;-87.602;2023-11-21T05:25:15;2.60;2.60;1.00
49343;PMS5003;35210;41.606;-87.602;2023-11-21T05:27:43;15.80;10.60;6.40
49343;PMS5003;35210;41.606;-87.602;2023-11-21T05:30:12;12.60;11.00;7.00
49343;PMS5003;35210;41.606;-87.602;2023-11-21T05:32:42;18.20;11.00;9.00
49343;PMS5003;35210;41.606;-87.602;2023-11-21T05:35:12;11.40;11.00;7.60
49343;PMS5003;35210;41.606;-87.602;2023-11-21T05:37:41;11.20;9.20;6.80
49343;PMS5003;35210;41.606;-87.602;2023-11-21T05:40:09;9.00;7.00;6.80
49343;PMS5003;35210;41.606;-87.602;2023-11-21T05:42:38;9.00;9.00;7.00
49343;PMS5003;35210;41.606;-87.602;2023-11-21T05:45:07;13.00;10.00;7.00
49343;PMS5003;35210;41.606;-87.602;2023-11-21T05:47:37;14.40;10.20;7.80
49343;PMS5003;35210;41.606;-87.602;2023-11-21T05:50:09;11.00;10.40;9.00
49343;PMS5003;35210;41.606;-87.602;2023-11-21T05:52:40;16.20;8.80;7.00
49343;PMS5003;35210;41.606;-87.602;2023-11-21T05:55:08;9.60;9.60;7.00
49343;PMS5003;35210;41.606;-87.602;2023-11-21T05:57:38;8.00;6.60;5.60
49343;PMS5003;35210;41.606;-87.602;2023-11-21T06:00:07;9.80;9.00;6.80
49343;PMS5003;35210;41.606;-87.602;2023-11-21T06:02:40;11.20;10.20;7.00
49343;PMS5003;35210;41.606;-87.602;2023-11-21T06:05:10;10.80;10.80;7.80
49343;PMS5003;35210;41.606;-87.602;2023-11-21T06:07:38;16.20;13.20;8.40
49343;PMS5003;35210;41.606;-87.602;2023-11-21T06:10:07;11.00;11.00;9.80
49343;PMS5003;35210;41.606;-87.602;2023-11-21T06:12:36;9.60;9.60;8.20
49343;PMS5003;35210;41.606;-87.602;2023-11-21T06:15:06;11.60;10.60;8.80
49343;PMS5003;35210;41.606;-87.602;2023-11-21T06:17:34;14.00;11.00;7.40
49343;PMS5003;35210;41.606;-87.602;2023-11-21T06:20:03;13.80;12.80;8.60
49343;PMS5003;35210;41.606;-87.602;2023-11-21T06:22:36;13.80;11.00;7.40
49343;PMS5003;35210;41.606;-87.602;2023-11-21T06:25:05;11.40;10.20;8.00
49343;PMS5003;35210;41.606;-87.602;2023-11-21T06:27:36;13.60;11.00;9.00
49343;PMS5003;35210;41.606;-87.602;2023-11-21T06:30:06;11.20;10.80;8.00
49343;PMS5003;35210;41.606;-87.602;2023-11-21T06:32:35;9.00;9.00;5.80
49343;PMS5003;35210;41.606;-87.602;2023-11-21T06:35:04;9.60;7.40;4.60
49343;PMS5003;35210;41.606;-87.602;2023-11-21T06:37:33;10.60;10.40;7.00
49343;PMS5003;35210;41.606;-87.602;2023-11-21T06:40:03;10.20;9.00;6.40
49343;PMS5003;35210;41.606;-87.602;2023-11-21T06:42:32;12.80;10.00;8.80
49343;PMS5003;35210;41.606;-87.602;2023-11-21T06:45:01;10.80;8.00;6.00
49343;PMS5003;35210;41.606;-87.602;2023-11-21T06:47:29;9.80;9.00;6.80
49343;PMS5003;35210;41.606;-87.602;2023-11-21T06:49:58;12.60;8.00;6.40
49343;PMS5003;35210;41.606;-87.602;2023-11-21T06:52:32;7.00;4.00;2.80
49343;PMS5003;35210;41.606;-87.602;2023-11-21T06:55:02;13.20;11.20;8.00
49343;PMS5003;35210;41.606;-87.602;2023-11-21T06:57:33;11.00;10.60;7.40
49343;PMS5003;35210;41.606;-87.602;2023-11-21T07:00:01;12.00;11.00;8.40
49343;PMS5003;35210;41.606;-87.602;2023-11-21T07:02:30;12.80;10.60;8.60
49343;PMS5003;35210;41.606;-87.602;2023-11-21T07:04:58;9.40;7.40;6.00
49343;PMS5003;35210;41.606;-87.602;2023-11-21T07:07:28;12.00;12.00;10.00
49343;PMS5003;35210;41.606;-87.602;2023-11-21T07:09:56;13.60;8.80;6.80
49343;PMS5003;35210;41.606;-87.602;2023-11-21T07:12:30;7.40;7.20;6.60
49343;PMS5003;35210;41.606;-87.602;2023-11-21T07:14:58;11.00;11.00;7.80
49343;PMS5003;35210;41.606;-87.602;2023-11-21T07:17:26;19.40;14.60;9.60
49343;PMS5003;35210;41.606;-87.602;2023-11-21T07:19:54;19.60;12.80;8.00
49343;PMS5003;35210;41.606;-87.602;2023-11-21T07:22:22;10.00;10.00;8.40
49343;PMS5003;35210;41.606;-87.602;2023-11-21T07:24:50;14.60;11.60;8.00
49343;PMS5003;35210;41.606;-87.602;2023-11-21T07:27:18;11.00;10.80;7.80
49343;PMS5003;35210;41.606;-87.602;2023-11-21T07:29:48;9.00;7.20;3.80
49343;PMS5003;35210;41.606;-87.602;2023-11-21T07:32:16;13.20;12.20;9.80
49343;PMS5003;35210;41.606;-87.602;2023-11-21T07:34:44;15.60;14.60;9.40
49343;PMS5003;35210;41.606;-87.602;2023-11-21T07:37:12;20.20;17.00;10.40
49343;PMS5003;35210;41.606;-87.602;2023-11-21T07:39:40;13.20;10.00;8.60
49343;PMS5003;35210;41.606;-87.602;2023-11-21T07:42:09;13.00;11.00;9.20
49343;PMS5003;35210;41.606;-87.602;2023-11-21T07:44:37;17.80;15.60;11.00
49343;PMS5003;35210;41.606;-87.602;2023-11-21T07:47:07;17.40;15.20;11.00
49343;PMS5003;35210;41.606;-87.602;2023-11-21T07:49:35;22.20;16.60;11.60
49343;PMS5003;35210;41.606;-87.602;2023-11-21T07:52:03;24.00;14.20;11.80
49343;PMS5003;35210;41.606;-87.602;2023-11-21T07:54:31;14.00;12.80;10.00
49343;PMS5003;35210;41.606;-87.602;2023-11-21T07:57:01;23.00;18.20;14.40
49343;PMS5003;35210;41.606;-87.602;2023-11-21T07:59:29;20.40;16.40;12.00
49343;PMS5003;35210;41.606;-87.602;2023-11-21T08:01:57;28.40;20.40;13.80
49343;PMS5003;35210;41.606;-87.602;2023-11-21T08:04:27;21.20;18.00;14.20
49343;PMS5003;35210;41.606;-87.602;2023-11-21T08:06:57;24.20;18.80;13.80
49343;PMS5003;35210;41.606;-87.602;2023-11-21T08:09:25;19.40;17.20;11.80
49343;PMS5003;35210;41.606;-87.602;2023-11-21T08:11:53;24.20;18.60;13.00
49343;PMS5003;35210;41.606;-87.602;2023-11-21T08:14:22;20.60;17.80;11.40
49343;PMS5003;35210;41.606;-87.602;2023-11-21T08:16:50;13.00;11.00;7.20
49343;PMS5003;35210;41.606;-87.602;2023-11-21T08:19:23;17.80;16.40;12.80
49343;PMS5003;35210;41.606;-87.602;2023-11-21T08:21:53;21.40;15.00;10.80
49343;PMS5003;35210;41.606;-87.602;2023-11-21T08:24:21;15.80;14.20;10.80
49343;PMS5003;35210;41.606;-87.602;2023-11-21T08:26:49;10.00;10.00;8.00
49343;PMS5003;35210;41.606;-87.602;2023-11-21T08:29:17;20.20;17.80;12.00
49343;PMS5003;35210;41.606;-87.602;2023-11-21T08:31:45;20.40;14.60;11.20
49343;PMS5003;35210;41.606;-87.602;2023-11-21T08:34:13;23.20;19.20;12.20
49343;PMS5003;35210;41.606;-87.602;2023-11-21T08:36:42;22.00;19.00;12.00
49343;PMS5003;35210;41.606;-87.602;2023-11-21T08:39:12;16.00;15.60;8.40
49343;PMS5003;35210;41.606;-87.602;2023-11-21T08:41:42;26.20;18.40;15.40
49343;PMS5003;35210;41.606;-87.602;2023-11-21T08:44:10;18.00;16.40;12.00
49343;PMS5003;35210;41.606;-87.602;2023-11-21T08:46:38;23.60;22.20;17.80
49343;PMS5003;35210;41.606;-87.602;2023-11-21T08:49:07;27.00;24.40;17.20
49343;PMS5003;35210;41.606;-87.602;2023-11-21T08:51:35;25.40;24.60;17.00
49343;PMS5003;35210;41.606;-87.602;2023-11-21T08:54:03;33.60;25.60;19.80
49343;PMS5003;35210;41.606;-87.602;2023-11-21T08:56:35;26.00;20.40;15.20
49343;PMS5003;35210;41.606;-87.602;2023-11-21T08:59:04;30.20;29.00;21.00
49343;PMS5003;35210;41.606;-87.602;2023-11-21T09:01:40;34.80;30.60;21.00
49343;PMS5003;35210;41.606;-87.602;2023-11-21T09:04:08;26.80;23.60;20.00
49343;PMS5003;35210;41.606;-87.602;2023-11-21T09:06:36;32.00;28.40;21.60
49343;PMS5003;35210;41.606;-87.602;2023-11-21T09:09:05;30.40;29.80;20.80
49343;PMS5003;35210;41.606;-87.602;2023-11-21T09:11:35;36.40;28.20;21.60
49343;PMS5003;35210;41.606;-87.602;2023-11-21T09:14:04;30.00;27.40;20.20
49343;PMS5003;35210;41.606;-87.602;2023-11-21T09:16:32;30.80;27.20;22.20
49343;PMS5003;35210;41.606;-87.602;2023-11-21T09:19:00;29.40;23.40;18.20
49343;PMS5003;35210;41.606;-87.602;2023-11-21T09:21:30;38.20;31.80;21.60
49343;PMS5003;35210;41.606;-87.602;2023-11-21T09:23:59;35.80;28.60;23.00
49343;PMS5003;35210;41.606;-87.602;2023-11-21T09:26:28;22.20;17.40;10.20
49343;PMS5003;35210;41.606;-87.602;2023-11-21T09:28:57;25.40;22.20;15.40
49343;PMS5003;35210;41.606;-87.602;2023-11-21T09:31:25;34.80;30.00;20.80
49343;PMS5003;35210;41.606;-87.602;2023-11-21T09:33:53;30.80;26.80;19.20
49343;PMS5003;35210;41.606;-87.602;2023-11-21T09:36:22;29.40;28.40;21.80
49343;PMS5003;35210;41.606;-87.602;2023-11-21T09:38:53;24.40;23.60;16.20
49343;PMS5003;35210;41.606;-87.602;2023-11-21T09:41:23;36.00;30.20;22.60
49343;PMS5003;35210;41.606;-87.602;2023-11-21T09:43:55;38.80;35.60;24.00
49343;PMS5003;35210;41.606;-87.602;2023-11-21T09:46:27;34.80;27.40;19.80
49343;PMS5003;35210;41.606;-87.602;2023-11-21T09:48:56;35.20;34.00;24.20
49343;PMS5003;35210;41.606;-87.602;2023-11-21T09:51:34;28.80;28.80;21.00
49343;PMS5003;35210;41.606;-87.602;2023-11-21T09:54:04;32.80;28.40;22.00
49343;PMS5003;35210;41.606;-87.602;2023-11-21T09:56:34;32.00;27.40;21.00
49343;PMS5003;35210;41.606;-87.602;2023-11-21T09:59:04;35.80;32.00;22.40
49343;PMS5003;35210;41.606;-87.602;2023-11-21T10:01:36;31.60;29.20;21.40
49343;PMS5003;35210;41.606;-87.602;2023-11-21T10:04:06;32.20;27.00;22.40
49343;PMS5003;35210;41.606;-87.602;2023-11-21T10:06:37;33.00;25.20;19.00
49343;PMS5003;35210;41.606;-87.602;2023-11-21T10:09:07;29.80;29.00;21.60
49343;PMS5003;35210;41.606;-87.602;2023-11-21T10:11:38;32.40;31.00;21.80
49343;PMS5003;35210;41.606;-87.602;2023-11-21T10:14:11;32.40;25.40;15.40
49343;PMS5003;35210;41.606;-87.602;2023-11-21T10:16:40;28.40;26.40;20.60
49343;PMS5003;35210;41.606;-87.602;2023-11-21T10:19:12;35.20;28.20;21.80
49343;PMS5003;35210;41.606;-87.602;2023-11-21T10:21:41;32.20;26.60;19.00
49343;PMS5003;35210;41.606;-87.602;2023-11-21T10:24:09;27.20;26.00;19.60
49343;PMS5003;35210;41.606;-87.602;2023-11-21T10:26:38;33.40;29.40;21.20
49343;PMS5003;35210;41.606;-87.602;2023-11-21T10:29:07;30.40;24.80;20.60
49343;PMS5003;35210;41.606;-87.602;2023-11-21T10:31:39;35.80;28.60;21.00
49343;PMS5003;35210;41.606;-87.602;2023-11-21T10:34:14;32.60;29.40;20.60
49343;PMS5003;35210;41.606;-87.602;2023-11-21T10:36:42;28.40;25.00;19.20
49343;PMS5003;35210;41.606;-87.602;2023-11-21T10:39:13;32.20;28.00;21.80
49343;PMS5003;35210;41.606;-87.602;2023-11-21T10:41:44;28.80;24.80;17.00
49343;PMS5003;35210;41.606;-87.602;2023-11-21T10:44:13;27.80;23.00;19.20
49343;PMS5003;35210;41.606;-87.602;2023-11-21T10:46:47;21.00;20.80;17.20
49343;PMS5003;35210;41.606;-87.602;2023-11-21T10:49:17;28.80;26.80;19.00
49343;PMS5003;35210;41.606;-87.602;2023-11-21T10:51:46;32.00;27.40;18.00
49343;PMS5003;35210;41.606;-87.602;2023-11-21T10:54:17;26.60;24.00;18.80
49343;PMS5003;35210;41.606;-87.602;2023-11-21T10:56:47;28.00;23.80;18.00
49343;PMS5003;35210;41.606;-87.602;2023-11-21T10:59:17;27.40;25.20;18.20
49343;PMS5003;35210;41.606;-87.602;2023-11-21T11:01:48;22.00;20.60;15.60
49343;PMS5003;35210;41.606;-87.602;2023-11-21T11:04:18;24.20;22.40;17.20
49343;PMS5003;35210;41.606;-87.602;2023-11-21T11:06:49;24.00;20.60;16.00
49343;PMS5003;35210;41.606;-87.602;2023-11-21T11:09:21;26.00;21.80;16.20
49343;PMS5003;35210;41.606;-87.602;2023-11-21T11:11:51;27.40;24.00;15.20
49343;PMS5003;35210;41.606;-87.602;2023-11-21T11:14:19;25.80;23.40;18.80
49343;PMS5003;35210;41.606;-87.602;2023-11-21T11:16:53;19.60;19.40;15.40
49343;PMS5003;35210;41.606;-87.602;2023-11-21T11:19:22;23.80;21.00;13.80
49343;PMS5003;35210;41.606;-87.602;2023-11-21T11:21:57;22.80;21.20;17.00
49343;PMS5003;35210;41.606;-87.602;2023-11-21T11:24:42;26.00;24.20;17.00
49343;PMS5003;35210;41.606;-87.602;2023-11-21T11:27:33;25.00;20.80;14.00
49343;PMS5003;35210;41.606;-87.602;2023-11-21T11:30:11;22.80;18.80;14.00
49343;PMS5003;35210;41.606;-87.602;2023-11-21T11:33:07;23.40;17.80;14.00
49343;PMS5003;35210;41.606;-87.602;2023-11-21T11:35:45;24.80;20.60;14.00
49343;PMS5003;35210;41.606;-87.602;2023-11-21T11:38:21;20.40;20.00;14.80
49343;PMS5003;35210;41.606;-87.602;2023-11-21T11:40:52;19.60;17.00;12.00
49343;PMS5003;35210;41.606;-87.602;2023-11-21T11:43:25;27.20;23.60;17.00
49343;PMS5003;35210;41.606;-87.602;2023-11-21T11:45:55;21.80;17.80;14.00
49343;PMS5003;35210;41.606;-87.602;2023-11-21T11:48:26;18.80;17.20;14.00
49343;PMS5003;35210;41.606;-87.602;2023-11-21T11:51:00;21.60;17.40;12.40
49343;PMS5003;35210;41.606;-87.602;2023-11-21T11:53:32;20.80;19.80;15.60
49343;PMS5003;35210;41.606;-87.602;2023-11-21T11:56:24;24.00;18.40;14.00
49343;PMS5003;35210;41.606;-87.602;2023-11-21T11:58:54;25.60;20.60;14.00
49343;PMS5003;35210;41.606;-87.602;2023-11-21T12:01:24;20.60;20.40;16.00
49343;PMS5003;35210;41.606;-87.602;2023-11-21T12:07:01;27.40;20.60;13.00
49343;PMS5003;35210;41.606;-87.602;2023-11-21T12:09:32;23.60;20.00;12.20
49343;PMS5003;35210;41.606;-87.602;2023-11-21T12:12:01;24.80;24.80;15.60
49343;PMS5003;35210;41.606;-87.602;2023-11-21T12:14:30;20.00;18.40;12.40
49343;PMS5003;35210;41.606;-87.602;2023-11-21T12:16:59;19.60;18.00;13.20
49343;PMS5003;35210;41.606;-87.602;2023-11-21T12:19:29;23.80;21.20;13.80
49343;PMS5003;35210;41.606;-87.602;2023-11-21T12:21:57;21.00;19.00;13.40
49343;PMS5003;35210;41.606;-87.602;2023-11-21T12:24:26;19.60;16.60;10.00
49343;PMS5003;35210;41.606;-87.602;2023-11-21T12:26:55;24.20;21.20;11.00
49343;PMS5003;35210;41.606;-87.602;2023-11-21T12:29:25;26.40;20.60;11.80
49343;PMS5003;35210;41.606;-87.602;2023-11-21T12:31:55;22.80;18.20;10.00
49343;PMS5003;35210;41.606;-87.602;2023-11-21T12:34:23;22.40;18.80;13.40
49343;PMS5003;35210;41.606;-87.602;2023-11-21T12:36:53;22.40;18.60;10.00
49343;PMS5003;35210;41.606;-87.602;2023-11-21T12:39:22;21.80;19.80;13.80
49343;PMS5003;35210;41.606;-87.602;2023-11-21T12:41:51;20.20;20.20;12.40
49343;PMS5003;35210;41.606;-87.602;2023-11-21T12:44:20;22.80;21.80;14.20
49343;PMS5003;35210;41.606;-87.602;2023-11-21T12:46:49;21.40;15.60;12.80
49343;PMS5003;35210;41.606;-87.602;2023-11-21T12:49:18;19.00;17.40;12.60
49343;PMS5003;35210;41.606;-87.602;2023-11-21T12:51:47;20.20;19.20;13.20
49343;PMS5003;35210;41.606;-87.602;2023-11-21T12:54:17;20.20;16.60;9.20
49343;PMS5003;35210;41.606;-87.602;2023-11-21T12:56:45;19.20;16.00;9.60
49343;PMS5003;35210;41.606;-87.602;2023-11-21T12:59:14;22.20;21.80;13.80
49343;PMS5003;35210;41.606;-87.602;2023-11-21T13:01:43;24.00;20.20;13.00
49343;PMS5003;35210;41.606;-87.602;2023-11-21T13:04:12;22.40;22.40;14.80
49343;PMS5003;35210;41.606;-87.602;2023-11-21T13:06:40;21.60;19.80;13.60
49343;PMS5003;35210;41.606;-87.602;2023-11-21T13:09:08;20.00;20.00;14.00
49343;PMS5003;35210;41.606;-87.602;2023-11-21T13:11:40;25.40;21.40;12.40
49343;PMS5003;35210;41.606;-87.602;2023-11-21T13:14:10;23.60;21.60;15.00
49343;PMS5003;35210;41.606;-87.602;2023-11-21T13:16:39;20.20;20.00;14.20
49343;PMS5003;35210;41.606;-87.602;2023-11-21T13:19:11;23.40;17.40;13.60
49343;PMS5003;35210;41.606;-87.602;2023-11-21T13:21:39;22.80;22.60;14.80
49343;PMS5003;35210;41.606;-87.602;2023-11-21T13:24:07;26.40;19.20;12.60
49343;PMS5003;35210;41.606;-87.602;2023-11-21T13:26:35;20.80;19.40;13.60
49343;PMS5003;35210;41.606;-87.602;2023-11-21T13:29:05;23.20;20.40;14.00
49343;PMS5003;35210;41.606;-87.602;2023-11-21T13:31:33;21.00;19.80;13.80
49343;PMS5003;35210;41.606;-87.602;2023-11-21T13:34:02;18.00;16.40;11.00
49343;PMS5003;35210;41.606;-87.602;2023-11-21T13:36:33;21.40;19.40;12.60
49343;PMS5003;35210;41.606;-87.602;2023-11-21T13:39:02;19.60;19.40;12.60
49343;PMS5003;35210;41.606;-87.602;2023-11-21T13:41:33;29.20;26.60;14.60
49343;PMS5003;35210;41.606;-87.602;2023-11-21T13:44:03;22.60;18.80;9.60
49343;PMS5003;35210;41.606;-87.602;2023-11-21T13:46:41;22.20;22.00;14.40
49343;PMS5003;35210;41.606;-87.602;2023-11-21T13:49:11;13.20;13.20;9.60
49343;PMS5003;35210;41.606;-87.602;2023-11-21T13:51:39;24.20;20.40;12.60